Detall de PIREP

Printer-friendly versionPDF version

[2017/01/01 07:06:00]
Flight IATA:CT1004
Pilot Number:012
Company ICAO:CAT
Aircraft Type:C750/F
PAX:4
Departing Airport: LIEA
Destination Airport: LJMB
Alternate Airport:LOWW
Online: VATSIM
Route:MINKA IBROS Q125 SUKOM M167 CHI M859 MONFA UM859 UMBEK M859 BARPI VALLU
Flight Level:F320
No Slew and time accel
No pause
Crash detect
Detect pilot in Cockpit between each 30 and 45 minutes
07:06 Zero fuel Weight: 22942 Lbs, Fuel Weight: 6849 Lbs
07:06 VATSIM:LIEA 010650Z VRB01KT 9999 R20/1000VP1500D MIFG SCT042 04/04 Q1027
07:06 VATSIM:LJMB 010630Z 32002KT 8000 NSC M09/M11 Q1025
07:07 Parking Brakes off
07:10 Take-off
07:10 Take off Weight: 29724 Lbs
07:10 Wind: 000º @ 000 Knots Heading: 205º
07:10 POS N40º 37´ 52´´ E008º 17´ 24´´
07:10 Flaps:3 at 166 Knots
07:10 Gear Up: 174 Knots
07:11 Flaps:2 at 189 Knots
07:11 Flaps:0 at 200 Knots
07:18 TOC
07:18 Fuel Weight: 6371 Lb
07:25 Wind:036º@016 Knots Heading: 042º Ground Speed: 465 Knots Altitude 33356 ft
07:40 Wind:099º@016 Knots Heading: 028º Ground Speed: 474 Knots Altitude 33385 ft
07:55 Wind:141º@012 Knots Heading: 041º Ground Speed: 481 Knots Altitude 33353 ft
08:05 TOD
08:05 Fuel Weight: 4953 Lb
08:10 Wind:070º@003 Knots Heading: 060º Ground Speed: 388 Knots Altitude 21886 ft
08:23 Gear Down: 199 Knots
08:23 Flaps:2 at 189 Knots
08:23 Flaps:3 at 176 Knots
08:24 Flaps:4 at 167 Knots
08:24 Flaps:5 at 161 Knots
08:25 Wind:324º@001 Knots Heading: 324º Ground Speed: 132 Knots Altitude 1387 ft
08:25 TouchDown:Rate -232 ft/min Speed: 128 Knots
08:25 VATSIM:LJMB 010800Z VRB01KT 8000 NSC M06/M08 Q1024 R32/CLRD//
08:25 Land
08:25 Wind:351º@001 Knots
08:25 Heading: 326º
08:25 Flight Duration: 01:15
08:25 Landing Weight: 27695 Lbs
08:25 POS N46º 28´ 54´´ E015º 41´ 02´´
08:28Parking brakes on
08:28 Block to Block Duration: 01:21
08:28 Final Fuel: 4731 Lbls
08:28 Spent Fuel: 2118 Lbls
08:28 Flight Length: 517 NM
08:28 TOD Land Length: 102 NM

Exportar CSV

Powered by Drupal - Modified by Danger4k